Time;durP1;ratioP1;P1;durP2;ratioP2;P2;SDS_P1;SDS_P2;PMS_P1;PMS_P2;Temp;Humidity;BMP_temperature;BMP_pressure;BME280_temperature;BME280_humidity;BME280_pressure;Samples;Min_cycle;Max_cycle;Signal;HPM_P1;HPM_P2
2022/09/11 00:00:16;;;;;;;44.25;25.00;;;13.70;99.90;;;;;;4825483;29;20383;-68
2022/09/11 00:02:42;;;;;;;40.22;25.33;;;13.70;99.90;;;;;;4824089;29;20471;-68
2022/09/11 00:05:09;;;;;;;39.03;24.13;;;13.70;99.90;;;;;;4841030;29;20058;-68
2022/09/11 00:07:34;;;;;;;37.20;23.90;;;13.60;99.90;;;;;;4824241;29;20144;-68
2022/09/11 00:10:00;;;;;;;38.97;23.33;;;13.60;99.90;;;;;;4819494;29;20114;-68
2022/09/11 00:12:25;;;;;;;34.45;22.70;;;13.60;99.90;;;;;;4832965;29;20050;-68
2022/09/11 00:14:51;;;;;;;38.28;24.33;;;13.60;99.90;;;;;;4836414;29;20050;-68
2022/09/11 00:17:17;;;;;;;40.60;24.27;;;13.60;99.90;;;;;;4824782;29;20062;-68
2022/09/11 00:19:42;;;;;;;43.58;25.15;;;13.50;99.90;;;;;;4841514;29;20053;-68
2022/09/11 00:22:08;;;;;;;44.42;25.60;;;13.50;99.90;;;;;;4827497;29;20149;-68
2022/09/11 00:24:34;;;;;;;41.88;24.52;;;13.50;99.90;;;;;;4810577;29;20133;-68
2022/09/11 00:27:00;;;;;;;43.47;25.20;;;13.50;99.90;;;;;;4812514;29;20062;-68
2022/09/11 00:29:28;;;;;;;38.85;23.20;;;13.50;99.90;;;;;;4828394;29;20058;-68
2022/09/11 00:31:56;;;;;;;32.28;21.63;;;13.50;99.90;;;;;;4844780;29;20125;-68
2022/09/11 00:34:22;;;;;;;37.78;23.80;;;13.40;99.90;;;;;;4828134;29;20061;-68
2022/09/11 00:36:48;;;;;;;31.95;21.38;;;13.40;99.90;;;;;;4828206;29;20053;-68
2022/09/11 00:39:13;;;;;;;34.35;23.33;;;13.40;99.90;;;;;;4844239;29;20050;-68
2022/09/11 00:41:42;;;;;;;33.13;22.17;;;13.40;99.90;;;;;;4828883;29;20050;-68
2022/09/11 00:44:27;;;;;;;29.98;20.90;;;13.40;99.90;;;;;;4828642;29;20054;-68
2022/09/11 00:46:57;;;;;;;36.20;23.83;;;13.40;99.90;;;;;;4827176;29;20069;-68
2022/09/11 00:49:31;;;;;;;39.10;23.63;;;13.40;99.90;;;;;;4844339;29;20066;-68
2022/09/11 00:52:23;;;;;;;33.80;22.35;;;13.40;99.90;;;;;;4843971;29;20499;-68
2022/09/11 00:55:00;;;;;;;38.58;23.08;;;13.30;99.90;;;;;;4827586;29;20129;-68
2022/09/11 00:57:29;;;;;;;39.03;25.17;;;13.30;99.90;;;;;;4843411;29;20106;-68
2022/09/11 00:59:57;;;;;;;36.00;23.85;;;13.30;99.90;;;;;;4828384;29;20054;-68
2022/09/11 01:02:26;;;;;;;30.90;21.88;;;13.30;99.90;;;;;;4816613;29;20095;-68
2022/09/11 01:04:52;;;;;;;38.55;24.10;;;13.30;99.90;;;;;;4809994;29;20095;-68
2022/09/11 01:07:21;;;;;;;34.17;22.30;;;13.30;99.90;;;;;;4825187;29;20058;-68
2022/09/11 01:09:46;;;;;;;38.40;23.23;;;13.20;99.90;;;;;;4842357;29;20447;-68
2022/09/11 01:12:22;;;;;;;39.70;24.33;;;13.20;99.90;;;;;;4827285;29;20179;-68
2022/09/11 01:14:57;;;;;;;39.05;23.75;;;13.30;99.90;;;;;;4843365;29;20407;-68
2022/09/11 01:17:35;;;;;;;50.20;25.35;;;13.20;99.90;;;;;;4826894;29;20062;-68
2022/09/11 01:20:13;;;;;;;65.78;25.95;;;13.30;99.90;;;;;;4832920;29;20090;-68
2022/09/11 01:22:57;;;;;;;64.20;26.77;;;13.20;99.90;;;;;;4833495;29;20157;-68
2022/09/11 01:25:44;;;;;;;72.82;26.27;;;13.20;99.90;;;;;;4842462;29;20062;-68
2022/09/11 01:28:15;;;;;;;55.00;26.40;;;13.20;99.90;;;;;;4841824;29;20129;-68
2022/09/11 01:30:53;;;;;;;47.23;25.67;;;13.20;99.90;;;;;;4841807;29;20125;-68
2022/09/11 01:33:33;;;;;;;49.13;25.50;;;13.20;99.90;;;;;;4842020;29;20323;-68
2022/09/11 01:36:08;;;;;;;52.95;26.58;;;13.20;99.90;;;;;;4843940;29;20068;-68
2022/09/11 01:38:38;;;;;;;59.58;26.15;;;13.20;99.90;;;;;;4839248;29;20491;-68
2022/09/11 01:41:20;;;;;;;92.40;25.35;;;13.20;99.90;;;;;;4828670;29;20049;-68
2022/09/11 01:44:02;;;;;;;83.97;25.92;;;13.20;99.90;;;;;;4843074;29;20050;-68
2022/09/11 01:46:29;;;;;;;;;;;13.10;99.90;;;;;;4843803;29;20114;-68
2022/09/11 01:49:11;;;;;;;101.28;27.23;;;13.10;99.90;;;;;;4841501;29;19924;-68
2022/09/11 01:51:39;;;;;;;84.65;25.90;;;13.00;99.90;;;;;;4841855;29;20053;-68
2022/09/11 01:54:15;;;;;;;69.97;24.60;;;13.00;99.90;;;;;;4839695;29;20137;-68
2022/09/11 01:56:46;;;;;;;127.53;26.90;;;13.10;99.90;;;;;;4841571;29;20129;-68
2022/09/11 01:59:16;;;;;;;116.82;28.17;;;13.00;99.90;;;;;;4841274;29;20412;-68
2022/09/11 02:01:49;;;;;;;139.65;30.13;;;13.00;99.90;;;;;;4841852;29;20460;-68
2022/09/11 02:04:23;;;;;;;151.95;30.48;;;13.00;99.90;;;;;;4843197;29;20110;-68
2022/09/11 02:06:55;;;;;;;125.47;28.92;;;13.00;99.90;;;;;;4841837;29;20107;-68
2022/09/11 02:09:23;;;;;;;64.07;25.30;;;13.00;99.90;;;;;;4840931;29;20103;-68
2022/09/11 02:11:54;;;;;;;74.13;26.73;;;13.00;99.90;;;;;;4841499;29;20073;-68
2022/09/11 02:14:28;;;;;;;117.38;28.50;;;13.00;99.90;;;;;;4842746;29;20086;-68
2022/09/11 02:17:26;;;;;;;147.63;30.20;;;13.00;99.90;;;;;;4840157;29;20511;-68
2022/09/11 02:19:53;;;;;;;255.90;35.63;;;13.00;99.90;;;;;;4817539;29;20094;-68
2022/09/11 02:22:19;;;;;;;142.10;27.30;;;13.00;99.90;;;;;;4794559;29;20085;-68
2022/09/11 02:24:45;;;;;;;140.48;26.55;;;13.00;99.90;;;;;;4801069;29;20504;-68
2022/09/11 02:27:15;;;;;;;119.55;25.50;;;13.00;99.90;;;;;;4790372;29;20058;-68
2022/09/11 02:29:41;;;;;;;97.78;26.10;;;12.90;99.90;;;;;;4813218;29;20050;-67
2022/09/11 02:32:10;;;;;;;90.32;26.45;;;12.90;99.90;;;;;;4825273;29;20048;-68
2022/09/11 02:34:37;;;;;;;76.32;26.63;;;12.90;99.90;;;;;;4807911;29;20104;-68
2022/09/11 02:37:15;;;;;;;60.70;25.33;;;12.90;99.90;;;;;;4794416;29;20058;-68
2022/09/11 02:40:11;;;;;;;45.30;23.85;;;12.90;99.90;;;;;;4819759;29;20062;-68
2022/09/11 02:43:07;;;;;;;35.03;21.58;;;12.90;99.90;;;;;;4792828;29;20086;-68
2022/09/11 02:45:58;;;;;;;28.67;19.50;;;12.80;99.90;;;;;;4805481;29;20043;-68
2022/09/11 02:48:44;;;;;;;22.38;16.52;;;12.80;99.90;;;;;;4823976;29;20061;-67
2022/09/11 02:51:33;;;;;;;26.48;19.42;;;12.80;99.90;;;;;;4779052;29;20142;-68
2022/09/11 02:54:16;;;;;;;26.70;19.33;;;12.80;99.90;;;;;;4810193;29;20074;-68
2022/09/11 02:56:44;;;;;;;;;;;12.80;99.90;;;;;;4824269;29;20054;-68
2022/09/11 02:59:23;;;;;;;24.52;17.98;;;12.70;99.90;;;;;;4819537;29;19925;-68
2022/09/11 03:01:51;;;;;;;24.13;17.38;;;12.70;99.90;;;;;;4802818;29;20058;-68
2022/09/11 03:04:19;;;;;;;30.50;19.92;;;12.70;99.90;;;;;;4807572;29;20110;-68
2022/09/11 03:06:47;;;;;;;27.73;20.27;;;12.70;99.90;;;;;;4821811;29;20431;-68
2022/09/11 03:09:13;;;;;;;25.77;18.80;;;12.70;99.90;;;;;;4807685;29;20513;-68
2022/09/11 03:11:39;;;;;;;26.70;18.48;;;12.70;99.90;;;;;;4808717;29;20059;-68
2022/09/11 03:14:05;;;;;;;25.77;17.73;;;12.60;99.90;;;;;;4801719;29;20511;-67
2022/09/11 03:16:30;;;;;;;25.77;17.27;;;12.50;99.90;;;;;;4802918;29;20058;-68
2022/09/11 03:18:56;;;;;;;22.17;16.90;;;12.50;99.90;;;;;;4822072;29;20066;-68
2022/09/11 03:21:21;;;;;;;18.63;14.60;;;12.50;99.90;;;;;;4826146;29;20053;-67
2022/09/11 03:23:47;;;;;;;18.70;16.25;;;12.50;99.90;;;;;;4839577;29;20132;-68
2022/09/11 03:26:13;;;;;;;18.35;14.75;;;12.40;99.90;;;;;;4840573;29;20104;-68
2022/09/11 03:28:38;;;;;;;20.00;14.95;;;12.40;99.90;;;;;;4831351;29;20058;-68
2022/09/11 03:31:05;;;;;;;24.80;15.55;;;12.40;99.90;;;;;;4829770;29;20110;-68
2022/09/11 03:33:30;;;;;;;15.80;13.40;;;12.30;99.90;;;;;;4817219;29;20553;-68
2022/09/11 03:35:56;;;;;;;14.70;12.55;;;12.30;99.90;;;;;;4830003;29;20054;-68
2022/09/11 03:38:21;;;;;;;18.88;14.95;;;12.30;99.90;;;;;;4840706;29;20115;-68
2022/09/11 03:40:47;;;;;;;15.75;13.82;;;12.30;99.90;;;;;;4841762;29;20057;-68
2022/09/11 03:43:14;;;;;;;14.90;13.07;;;12.20;99.90;;;;;;4825314;29;20062;-67
2022/09/11 03:45:40;;;;;;;15.88;13.45;;;12.20;99.90;;;;;;4841406;29;20064;-67
2022/09/11 03:48:06;;;;;;;15.45;12.93;;;12.10;99.90;;;;;;4824198;29;20554;-68
2022/09/11 03:50:32;;;;;;;16.02;13.60;;;12.00;99.90;;;;;;4809645;29;20487;-68
2022/09/11 03:52:57;;;;;;;17.38;13.43;;;12.00;99.90;;;;;;4825020;29;20107;-68
2022/09/11 03:55:23;;;;;;;15.32;13.35;;;12.00;99.90;;;;;;4823803;29;20066;-68
2022/09/11 03:58:14;;;;;;;17.85;15.30;;;12.00;99.90;;;;;;4839475;29;20045;-68
2022/09/11 04:00:42;;;;;;;17.40;14.48;;;12.00;99.90;;;;;;4841712;29;20054;-68
2022/09/11 04:03:11;;;;;;;17.08;13.60;;;12.00;99.90;;;;;;4832232;29;20081;-68
2022/09/11 04:06:13;;;;;;;18.90;14.65;;;12.00;99.90;;;;;;4839436;29;20503;-68
2022/09/11 04:08:44;;;;;;;16.77;14.15;;;12.00;99.90;;;;;;4823684;29;20081;-68
2022/09/11 04:11:15;;;;;;;20.08;15.60;;;12.00;99.90;;;;;;4840907;29;20096;-68
2022/09/11 04:13:47;;;;;;;16.55;14.27;;;12.00;99.90;;;;;;4841086;29;20141;-68
2022/09/11 04:16:39;;;;;;;15.82;13.38;;;12.00;99.90;;;;;;4831274;29;20083;-68
2022/09/11 04:19:33;;;;;;;16.80;13.07;;;12.00;99.90;;;;;;4837638;29;20062;-68
2022/09/11 04:21:59;;;;;;;15.70;12.85;;;12.00;99.90;;;;;;4823534;29;20090;-68
2022/09/11 04:25:15;;;;;;;16.42;14.02;;;11.90;99.90;;;;;;4822683;29;20062;-68
2022/09/11 04:27:41;;;;;;;18.42;15.05;;;12.00;99.90;;;;;;4839476;29;20042;-68
2022/09/11 04:30:07;;;;;;;18.05;15.07;;;11.90;99.90;;;;;;4823770;29;20110;-68
2022/09/11 04:32:33;;;;;;;17.88;14.30;;;12.00;99.90;;;;;;4822364;29;20058;-69
2022/09/11 04:35:00;;;;;;;17.75;13.68;;;12.00;99.90;;;;;;4839733;29;20054;-68
2022/09/11 04:37:27;;;;;;;12.82;11.43;;;12.00;99.90;;;;;;4822462;29;20472;-69
2022/09/11 04:39:53;;;;;;;18.20;14.10;;;12.00;99.90;;;;;;4821774;29;20121;-69
2022/09/11 04:42:18;;;;;;;16.02;13.38;;;12.00;99.90;;;;;;4840416;29;20132;-68
2022/09/11 04:44:45;;;;;;;15.45;13.10;;;11.90;99.90;;;;;;4824107;29;20050;-69
2022/09/11 04:47:11;;;;;;;15.90;14.23;;;11.90;99.90;;;;;;4823799;29;20175;-68
2022/09/11 04:49:37;;;;;;;17.17;14.48;;;11.90;99.90;;;;;;4824056;29;20121;-68
2022/09/11 04:52:04;;;;;;;17.55;14.60;;;11.90;99.90;;;;;;4823677;29;20058;-69
2022/09/11 04:54:32;;;;;;;15.68;12.80;;;11.90;99.90;;;;;;4823126;29;20371;-68
2022/09/11 04:56:58;;;;;;;16.45;13.02;;;12.00;99.90;;;;;;4838825;29;20070;-69
2022/09/11 04:59:24;;;;;;;12.38;10.77;;;11.90;99.90;;;;;;4836906;29;20050;-68
2022/09/11 05:01:50;;;;;;;12.40;11.10;;;12.00;99.90;;;;;;4819459;29;20053;-68
2022/09/11 05:04:17;;;;;;;12.70;11.35;;;12.00;99.90;;;;;;4824254;29;20436;-68
2022/09/11 05:06:47;;;;;;;13.25;11.15;;;12.00;99.90;;;;;;4840245;29;20173;-68
2022/09/11 05:09:13;;;;;;;14.10;12.23;;;12.00;99.90;;;;;;4837078;29;20045;-68
2022/09/11 05:11:39;;;;;;;14.35;12.88;;;11.90;99.90;;;;;;4842503;29;20050;-68
2022/09/11 05:14:05;;;;;;;13.55;12.15;;;12.00;99.90;;;;;;4824894;29;20118;-68
2022/09/11 05:16:33;;;;;;;13.55;12.13;;;12.00;99.90;;;;;;4840788;29;20053;-68
2022/09/11 05:19:00;;;;;;;15.00;13.40;;;12.00;99.90;;;;;;4827039;29;20065;-68
2022/09/11 05:21:26;;;;;;;17.98;14.18;;;12.10;99.90;;;;;;4826378;29;20137;-68
2022/09/11 05:23:54;;;;;;;18.38;15.52;;;12.10;99.90;;;;;;4818761;29;20407;-68
2022/09/11 05:26:25;;;;;;;17.27;14.65;;;12.20;99.90;;;;;;4827694;29;20042;-68
2022/09/11 05:29:04;;;;;;;20.48;15.70;;;12.30;99.90;;;;;;4824593;29;20103;-68
2022/09/11 05:31:31;;;;;;;17.48;15.52;;;12.40;99.90;;;;;;4841134;29;20050;-69
2022/09/11 05:33:59;;;;;;;19.23;15.38;;;12.50;99.90;;;;;;4831228;29;20049;-68
2022/09/11 05:36:25;;;;;;;15.95;14.25;;;12.50;99.90;;;;;;4823424;29;20082;-69
2022/09/11 05:38:52;;;;;;;19.35;16.40;;;12.60;99.90;;;;;;4820360;29;21217;-69
2022/09/11 05:41:18;;;;;;;18.85;15.73;;;12.60;99.90;;;;;;4834900;29;20524;-68
2022/09/11 05:43:45;;;;;;;17.55;14.73;;;12.70;99.90;;;;;;4830057;29;20449;-68
2022/09/11 05:46:14;;;;;;;18.35;15.30;;;12.70;99.90;;;;;;4833206;29;20859;-68
2022/09/11 05:48:40;;;;;;;17.40;15.00;;;12.70;99.90;;;;;;4840041;29;20053;-69
2022/09/11 05:51:27;;;;;;;16.20;14.57;;;12.80;99.90;;;;;;4827379;29;20090;-69
2022/09/11 05:53:54;;;;;;;15.60;13.93;;;12.90;99.90;;;;;;4820181;29;20057;-68
2022/09/11 05:56:22;;;;;;;17.85;15.77;;;12.90;99.90;;;;;;4811642;29;20095;-69
2022/09/11 05:58:50;;;;;;;16.10;14.45;;;12.90;99.90;;;;;;4827379;29;20078;-68
2022/09/11 06:01:21;;;;;;;18.98;15.10;;;13.00;99.90;;;;;;4811761;29;20164;-68
2022/09/11 06:03:48;;;;;;;16.25;14.45;;;13.00;99.90;;;;;;4809195;29;20061;-68
2022/09/11 06:06:15;;;;;;;16.90;14.32;;;13.00;99.90;;;;;;4840853;29;20053;-69
2022/09/11 06:08:44;;;;;;;16.33;13.52;;;13.10;99.90;;;;;;4827151;29;20387;-68
2022/09/11 06:11:12;;;;;;;14.75;13.25;;;13.10;99.90;;;;;;4827360;29;20069;-68
2022/09/11 06:13:40;;;;;;;16.05;14.45;;;13.20;99.90;;;;;;4827154;29;20058;-68
2022/09/11 06:16:10;;;;;;;14.43;12.98;;;13.40;99.90;;;;;;4843532;29;20578;-68
2022/09/11 06:18:36;;;;;;;14.57;12.57;;;13.50;99.90;;;;;;4825290;29;20397;-68
2022/09/11 06:21:08;;;;;;;13.70;12.30;;;13.70;99.90;;;;;;4842773;29;20061;-69
2022/09/11 06:23:35;;;;;;;13.52;12.13;;;13.80;99.90;;;;;;4824313;29;20616;-68
2022/09/11 06:26:09;;;;;;;13.40;12.10;;;13.90;99.90;;;;;;4827620;29;20491;-68
2022/09/11 06:28:35;;;;;;;12.48;11.27;;;14.00;99.90;;;;;;4842794;29;20057;-68
2022/09/11 06:31:03;;;;;;;13.18;11.77;;;14.10;99.90;;;;;;4827657;29;20518;-69
2022/09/11 06:33:37;;;;;;;13.55;12.25;;;14.20;99.90;;;;;;4826908;29;20140;-68
2022/09/11 06:36:11;;;;;;;12.98;11.68;;;14.30;99.90;;;;;;4842513;29;20062;-68
2022/09/11 06:38:37;;;;;;;15.25;13.50;;;14.30;99.90;;;;;;4843448;29;20065;-69
2022/09/11 06:41:05;;;;;;;14.90;13.38;;;14.40;99.90;;;;;;4842399;29;20058;-68
2022/09/11 06:43:31;;;;;;;12.38;11.18;;;14.50;99.90;;;;;;4823279;29;20054;-68
2022/09/11 06:46:26;;;;;;;15.20;13.60;;;14.60;99.90;;;;;;4840954;29;20120;-68
2022/09/11 06:48:52;;;;;;;12.77;11.48;;;14.60;99.90;;;;;;4833846;29;20090;-68
2022/09/11 06:51:20;;;;;;;15.88;14.38;;;14.70;99.90;;;;;;4841626;29;20353;-69
2022/09/11 06:53:46;;;;;;;16.10;14.40;;;14.90;99.90;;;;;;4826646;29;20061;-69
2022/09/11 06:56:17;;;;;;;15.95;14.25;;;15.00;99.90;;;;;;4826422;29;20050;-69
2022/09/11 06:58:44;;;;;;;15.50;13.85;;;15.10;99.90;;;;;;4824780;29;20052;-68
2022/09/11 07:01:12;;;;;;;15.40;13.88;;;15.10;99.90;;;;;;4826570;29;20057;-67
2022/09/11 07:03:44;;;;;;;14.32;12.98;;;15.20;99.90;;;;;;4826315;29;20469;-69
2022/09/11 07:06:11;;;;;;;14.98;13.48;;;15.30;99.90;;;;;;4826757;29;20137;-68
2022/09/11 07:08:37;;;;;;;15.00;13.50;;;15.40;99.90;;;;;;4837974;29;20054;-69
2022/09/11 07:11:04;;;;;;;15.30;13.70;;;15.50;99.90;;;;;;4824165;29;20046;-68
2022/09/11 07:13:31;;;;;;;17.40;14.13;;;15.60;99.90;;;;;;4831762;29;20117;-69
2022/09/11 07:16:01;;;;;;;16.40;14.75;;;15.80;99.90;;;;;;4834037;29;20046;-69
2022/09/11 07:18:32;;;;;;;15.20;13.60;;;15.80;99.90;;;;;;4823844;29;20133;-69
2022/09/11 07:20:59;;;;;;;15.90;14.18;;;15.80;99.90;;;;;;4822291;29;20062;-68
2022/09/11 07:23:53;;;;;;;14.95;13.55;;;16.00;99.90;;;;;;4822823;29;20053;-67
2022/09/11 07:26:19;;;;;;;16.20;14.50;;;16.20;99.90;;;;;;4822293;29;20509;-67
2022/09/11 07:28:50;;;;;;;15.88;14.25;;;16.10;99.90;;;;;;4826072;29;20050;-67
2022/09/11 07:31:37;;;;;;;15.50;14.00;;;16.30;99.90;;;;;;4825866;29;20054;-66
2022/09/11 07:34:02;;;;;;;14.27;12.82;;;16.40;99.90;;;;;;4842838;29;20045;-66
2022/09/11 07:36:50;;;;;;;15.45;13.85;;;16.50;99.90;;;;;;4809706;29;20816;-66
2022/09/11 07:39:16;;;;;;;15.38;13.85;;;16.60;99.90;;;;;;4842246;29;20057;-66
2022/09/11 07:42:36;;;;;;;14.25;12.50;;;16.70;99.90;;;;;;4842181;29;20050;-66
2022/09/11 07:45:31;;;;;;;14.85;12.73;;;16.90;99.90;;;;;;4842388;29;20057;-67
2022/09/11 07:48:01;;;;;;;14.35;12.80;;;17.00;99.90;;;;;;4840839;29;20129;-68
2022/09/11 07:50:30;;;;;;;15.23;12.30;;;17.00;99.90;;;;;;4826142;29;20061;-68
2022/09/11 07:53:21;;;;;;;12.85;11.65;;;17.10;99.90;;;;;;4840147;29;20050;-68
2022/09/11 07:55:48;;;;;;;13.95;12.63;;;17.30;99.90;;;;;;4825915;29;20058;-68
2022/09/11 07:58:43;;;;;;;13.05;11.75;;;17.30;99.90;;;;;;4841867;29;20065;-68
2022/09/11 08:01:36;;;;;;;13.07;11.77;;;17.50;99.90;;;;;;4826224;29;20077;-68
2022/09/11 08:07:13;;;;;;;12.80;11.60;;;17.60;99.90;;;;;;4821100;29;20606;-66
2022/09/11 08:10:04;;;;;;;12.82;11.52;;;18.00;99.90;;;;;;4825492;29;20054;-68
2022/09/11 08:12:59;;;;;;;11.63;10.55;;;17.90;99.90;;;;;;4825206;29;20073;-68
2022/09/11 08:15:34;;;;;;;11.90;10.85;;;18.10;99.90;;;;;;4826081;29;20471;-67
2022/09/11 08:18:00;;;;;;;11.32;10.23;;;18.10;99.90;;;;;;4828755;29;20506;-68
2022/09/11 08:20:25;;;;;;;11.77;10.57;;;18.30;99.90;;;;;;4840341;29;20182;-68
2022/09/11 08:22:51;;;;;;;10.45;9.45;;;18.40;99.90;;;;;;4824771;29;20054;-68
2022/09/11 08:25:46;;;;;;;10.85;9.85;;;18.50;99.90;;;;;;4841837;29;20140;-66
2022/09/11 08:28:46;;;;;;;11.52;10.50;;;18.60;99.90;;;;;;4840169;29;20491;-67
2022/09/11 08:31:18;;;;;;;10.52;9.43;;;18.70;99.90;;;;;;4840047;29;20046;-67
2022/09/11 08:34:12;;;;;;;9.57;8.68;;;18.80;99.90;;;;;;4832975;29;20081;-67
2022/09/11 08:36:43;;;;;;;9.75;8.10;;;18.90;99.90;;;;;;4837632;29;20046;-67
2022/09/11 08:39:22;;;;;;;7.90;7.03;;;19.00;99.90;;;;;;4841479;29;20404;-67
2022/09/11 08:41:58;;;;;;;6.55;5.90;;;19.10;99.90;;;;;;4827649;29;20081;-68
2022/09/11 08:44:51;;;;;;;6.30;4.78;;;19.30;99.90;;;;;;4843814;29;20054;-68
2022/09/11 08:50:50;;;;;;;4.80;4.10;;;19.60;99.90;;;;;;4843494;29;20050;-68
2022/09/11 08:53:18;;;;;;;6.25;5.40;;;19.80;99.90;;;;;;4834978;29;20077;-67
2022/09/11 08:56:01;;;;;;;7.60;5.20;;;19.80;99.90;;;;;;4835836;29;20114;-68
2022/09/11 08:58:52;;;;;;;6.78;3.92;;;20.00;99.90;;;;;;4843715;29;20042;-68
2022/09/11 09:24:18;;;;;;;2.95;2.28;;;19.80;99.90;;;;;;4771992;30;20134;-68
2022/09/11 09:48:00;;;;;;;5.22;2.20;;;21.30;99.90;;;;;;4723016;30;20517;-68
2022/09/11 09:55:00;;;;;;;2.75;2.28;;;21.70;99.90;;;;;;4734404;30;20086;-69
2022/09/11 09:57:34;;;;;;;3.38;2.30;;;21.50;99.90;;;;;;4734097;30;20140;-68
2022/09/11 10:00:25;;;;;;;3.65;2.53;;;21.40;99.90;;;;;;4719699;30;20064;-68
2022/09/11 10:02:56;;;;;;;4.05;2.30;;;21.10;99.90;;;;;;4738365;30;20056;-68
2022/09/11 10:05:30;;;;;;;;;;;21.00;99.90;;;;;;4741595;30;20409;-68
2022/09/11 10:08:03;;;;;;;3.70;1.77;;;20.80;99.90;;;;;;4753095;30;19921;-68
2022/09/11 10:10:39;;;;;;;3.97;1.90;;;20.70;99.90;;;;;;4779669;30;20051;-68
2022/09/11 10:13:15;;;;;;;2.67;1.92;;;20.60;99.90;;;;;;4763277;30;20055;-68
2022/09/11 10:15:41;;;;;;;2.33;1.50;;;20.50;99.90;;;;;;4779052;30;20067;-68
2022/09/11 10:18:34;;;;;;;2.10;1.38;;;20.50;99.90;;;;;;4742619;30;20048;-68
2022/09/11 10:21:18;;;;;;;9.95;1.50;;;20.30;99.90;;;;;;4749348;30;20103;-68
2022/09/11 10:23:51;;;;;;;3.30;1.30;;;20.10;99.90;;;;;;4753551;30;20064;-68
2022/09/11 10:26:17;;;;;;;3.13;1.33;;;20.00;99.90;;;;;;4737633;30;20063;-68
2022/09/11 10:28:45;;;;;;;2.47;1.67;;;20.00;99.90;;;;;;4753610;30;20052;-67
2022/09/11 10:31:15;;;;;;;4.82;1.65;;;19.90;99.90;;;;;;4722796;30;20052;-68
2022/09/11 10:34:03;;;;;;;3.63;2.00;;;19.90;99.90;;;;;;4745634;30;20398;-68
2022/09/11 10:36:29;;;;;;;3.90;2.10;;;19.90;99.90;;;;;;4744863;30;20051;-69
2022/09/11 10:38:57;;;;;;;3.53;1.70;;;20.10;99.90;;;;;;4739886;30;20571;-69
2022/09/11 10:41:25;;;;;;;3.75;1.90;;;20.40;99.90;;;;;;4762487;30;20498;-68
2022/09/11 10:44:04;;;;;;;2.70;1.52;;;20.60;99.90;;;;;;4754335;30;20056;-68
2022/09/11 10:46:41;;;;;;;2.97;1.80;;;20.90;99.90;;;;;;4769740;30;20052;-69
2022/09/11 10:49:16;;;;;;;1.58;1.45;;;21.20;99.90;;;;;;4771439;30;20797;-68
2022/09/11 10:54:52;;;;;;;1.63;1.35;;;21.20;99.90;;;;;;4739708;30;20498;-68
2022/09/11 10:57:43;;;;;;;3.17;1.73;;;21.40;99.90;;;;;;4739595;30;20056;-67
2022/09/11 11:00:15;;;;;;;2.20;1.50;;;21.60;99.90;;;;;;4765240;30;20040;-67
2022/09/11 11:02:51;;;;;;;2.03;1.33;;;21.80;99.90;;;;;;4752538;30;20059;-67
2022/09/11 11:05:42;;;;;;;2.13;1.30;;;21.90;99.90;;;;;;4739638;30;20059;-67
2022/09/11 11:08:26;;;;;;;2.85;1.33;;;22.00;99.90;;;;;;4758217;30;20516;-68
2022/09/11 11:11:03;;;;;;;2.55;1.30;;;22.10;99.90;;;;;;4755183;30;20083;-68
2022/09/11 11:14:13;;;;;;;1.83;1.20;;;22.10;99.90;;;;;;4760553;30;20109;-68
2022/09/11 11:17:10;;;;;;;2.08;1.10;;;22.10;99.90;;;;;;4756444;30;20061;-68
2022/09/11 11:20:14;;;;;;;1.50;0.95;;;22.20;99.90;;;;;;4753073;30;20410;-68
2022/09/11 11:22:59;;;;;;;2.83;1.40;;;22.40;99.90;;;;;;4751907;30;20052;-68
2022/09/11 11:25:34;;;;;;;1.95;1.08;;;22.60;99.90;;;;;;4752672;30;20532;-68
2022/09/11 11:28:15;;;;;;;1.70;1.00;;;22.60;99.90;;;;;;4772894;30;20052;-68
2022/09/11 11:31:03;;;;;;;2.05;1.33;;;22.50;99.90;;;;;;4760941;30;20075;-67
2022/09/11 11:33:36;;;;;;;1.98;1.10;;;22.30;99.90;;;;;;4760770;30;20086;-68
2022/09/11 11:36:07;;;;;;;1.02;0.90;;;22.10;99.90;;;;;;4775388;30;20052;-68
2022/09/11 11:38:47;;;;;;;2.35;1.17;;;22.00;99.90;;;;;;4773979;30;20060;-68
2022/09/11 11:41:26;;;;;;;2.75;1.23;;;22.10;99.90;;;;;;4767634;30;20126;-68
2022/09/11 11:43:54;;;;;;;2.97;1.30;;;22.20;99.90;;;;;;4750610;30;20055;-68
2022/09/11 11:46:30;;;;;;;4.90;1.27;;;22.30;99.90;;;;;;4750808;30;20143;-67
2022/09/11 11:49:14;;;;;;;2.22;1.20;;;22.60;99.90;;;;;;4774469;30;20074;-67
2022/09/11 11:51:56;;;;;;;2.78;1.30;;;22.80;99.90;;;;;;4765573;30;20494;-67
2022/09/11 11:54:29;;;;;;;1.38;1.02;;;22.90;99.90;;;;;;4751874;30;20059;-67
2022/09/11 11:57:17;;;;;;;1.85;1.20;;;23.00;99.90;;;;;;4726656;30;20135;-67
2022/09/11 12:00:08;;;;;;;2.78;2.58;;;23.00;99.90;;;;;;4738308;30;20063;-67
2022/09/11 12:02:51;;;;;;;2.67;1.30;;;23.10;99.90;;;;;;4732996;30;20438;-66
2022/09/11 12:05:27;;;;;;;2.55;1.50;;;22.80;99.90;;;;;;4750709;30;20055;-67
2022/09/11 12:07:53;;;;;;;2.20;1.25;;;22.50;99.90;;;;;;4767446;30;20150;-66
2022/09/11 12:11:11;;;;;;;3.13;1.63;;;22.20;99.90;;;;;;4767426;30;20553;-66
2022/09/11 12:13:42;;;;;;;3.80;1.65;;;22.00;99.90;;;;;;4767707;30;20139;-66
2022/09/11 12:16:14;;;;;;;2.47;1.42;;;21.90;99.90;;;;;;4768324;30;20063;-66
2022/09/11 12:18:58;;;;;;;2.30;1.70;;;21.60;99.90;;;;;;4752843;30;20055;-67
2022/09/11 12:21:24;;;;;;;2.15;1.50;;;21.40;99.90;;;;;;4772901;30;20048;-67
2022/09/11 12:23:49;;;;;;;3.67;1.60;;;21.30;99.90;;;;;;4773509;30;20408;-68
2022/09/11 12:26:21;;;;;;;1.75;1.60;;;21.20;99.90;;;;;;4756598;30;20068;-67
2022/09/11 12:28:47;;;;;;;1.65;1.55;;;21.20;99.90;;;;;;4757274;30;20070;-67
2022/09/11 12:31:17;;;;;;;4.25;1.60;;;21.10;99.90;;;;;;4773199;30;20403;-67
2022/09/11 12:33:43;;;;;;;2.78;1.60;;;21.10;99.90;;;;;;4740227;30;20051;-68
2022/09/11 12:36:37;;;;;;;3.25;1.90;;;21.10;99.90;;;;;;4789412;30;20081;-68
2022/09/11 12:39:19;;;;;;;2.90;1.80;;;21.10;99.90;;;;;;4774869;30;20055;-67
2022/09/11 12:41:49;;;;;;;7.72;2.00;;;21.30;99.90;;;;;;4774701;30;20534;-67
2022/09/11 12:44:46;;;;;;;3.15;1.58;;;21.40;99.90;;;;;;4791026;30;20055;-69
2022/09/11 12:47:26;;;;;;;3.60;1.80;;;21.50;99.90;;;;;;4774539;30;20055;-67
2022/09/11 12:50:21;;;;;;;3.25;1.63;;;21.60;99.90;;;;;;4756032;30;20059;-67
2022/09/11 13:04:46;;;;;;;3.72;1.60;;;21.60;99.90;;;;;;4772893;30;20155;-68
2022/09/11 13:07:41;;;;;;;3.50;1.58;;;21.30;99.90;;;;;;4769489;30;20051;-67
2022/09/11 13:10:34;;;;;;;4.20;1.63;;;21.30;99.90;;;;;;4790447;30;20052;-67
2022/09/11 13:13:02;;;;;;;4.57;1.70;;;21.40;99.90;;;;;;4790326;30;20510;-68
2022/09/11 13:15:56;;;;;;;5.00;2.00;;;21.40;99.90;;;;;;4774364;30;20070;-67
2022/09/11 13:18:31;;;;;;;3.72;1.70;;;21.50;99.90;;;;;;4759555;30;20055;-68
2022/09/11 13:24:02;;;;;;;1.98;1.60;;;21.70;99.90;;;;;;4739716;30;20409;-67
2022/09/11 13:26:31;;;;;;;2.10;1.70;;;21.70;99.90;;;;;;4738172;30;20056;-67
2022/09/11 13:33:06;;;;;;;3.75;1.48;;;21.90;99.90;;;;;;4754533;30;20128;-68
2022/09/11 13:35:33;;;;;;;2.58;1.35;;;22.10;99.90;;;;;;4738405;30;20179;-67
2022/09/11 13:38:08;;;;;;;2.75;1.42;;;22.20;99.90;;;;;;4753699;30;20359;-68
2022/09/11 13:41:03;;;;;;;3.83;1.60;;;22.20;99.90;;;;;;4777791;30;20055;-68
2022/09/11 13:44:21;;;;;;;4.63;1.50;;;22.20;99.90;;;;;;4764618;30;20046;-67
2022/09/11 13:46:51;;;;;;;2.65;1.60;;;22.00;99.90;;;;;;4740994;30;20060;-68
2022/09/11 13:49:42;;;;;;;2.22;1.40;;;21.90;99.90;;;;;;4740292;30;20055;-68
2022/09/11 13:52:11;;;;;;;4.45;1.80;;;21.80;99.90;;;;;;4743946;30;20056;-67
2022/09/11 13:55:27;;;;;;;2.80;1.58;;;21.80;99.90;;;;;;4756607;30;20520;-67
2022/09/11 13:58:21;;;;;;;2.33;1.75;;;21.70;99.90;;;;;;4779466;30;20059;-67
2022/09/11 14:00:49;;;;;;;2.42;1.35;;;21.60;99.90;;;;;;4779985;30;20060;-68
2022/09/11 14:04:03;;;;;;;2.50;1.75;;;21.60;99.90;;;;;;4748779;30;20122;-66
2022/09/11 14:06:29;;;;;;;2.42;1.70;;;21.70;99.90;;;;;;4777502;30;20128;-67
2022/09/11 14:08:56;;;;;;;4.05;1.90;;;21.80;99.90;;;;;;4776812;30;20055;-68
2022/09/11 14:11:32;;;;;;;1.75;1.35;;;21.90;99.90;;;;;;4747143;30;20188;-68
2022/09/11 14:14:27;;;;;;;3.08;1.90;;;22.00;99.90;;;;;;4764556;30;20055;-67
2022/09/11 14:20:40;;;;;;;2.85;1.70;;;22.10;99.90;;;;;;4752212;30;20056;-67
2022/09/11 14:23:07;;;;;;;;;;;22.20;99.90;;;;;;4737640;30;20056;-67
2022/09/11 14:26:09;;;;;;;2.13;1.92;;;22.20;99.90;;;;;;4738735;30;19930;-66
2022/09/11 14:28:47;;;;;;;3.88;1.80;;;22.10;99.90;;;;;;4754524;30;20105;-67
2022/09/11 14:31:32;;;;;;;4.45;1.70;;;22.00;99.90;;;;;;4759304;30;20079;-68
2022/09/11 14:34:19;;;;;;;2.72;1.42;;;21.90;99.90;;;;;;4737214;30;20478;-67